Pagina principale
METAR-TAF:

METAR-TAF

Aeroporti :

Payerne, Svizzera

latitudine: 46-49N, longitudine: 006-57E, altezza: 490 m

Osservazione

Il bollettino è stato emesso 17 minuti fa, alle 04:20 UTC
Vento 22 kt da est/nord-est con raffiche fino a 33 kt
Temperature 3°C
Umidità 75%
Pressione 1018 hPa
Visibilità 10 km o più
Cielo coperto ad un'altezza di 1800 ft

METAR: LSMP 300420Z AUTO 06022G33KT 9999NDV OVC018 03/M01 Q1018 RMK

Ora: 06:37 (04:37 UTC)


TAF: mancante

Osservazioni e previsioni meteorologiche di più di 4000 aeroporti (messaggi METAR e TAF).

Le stazioni disponibili sono rappresentate dai dischi gialli e rossi sulla carta.

Puntare il mouse per vedere il nome della stazione.

Clicca sopra per visualizzare le osservazioni e previsioni meteorologiche.

Per cambiare la mappa : fare clic sui pulsanti verdi con una croce nera per ingrandire, il pulsante verde con un trattino per diminuire, o sulla freccia verde per le mappe adiacenti.


METAR-TAF: